X  Close Metar Aviation Weather Data     EHKD De Kooy Airport
Temperature
9°C Temperature
5°C Dewpoint
76% Humidity



Wind
15 MPH
24 KM/H
7 M/S
13 KTS



340°
NNW
Current Conditions

Mostly Cloudy Mostly Cloudy
Pressure 1001.02 (hPa) - 29.56 (inHg)
Visibility 6 (mile) - 9.7 (km)
Airport
Airport-code EHKD

Location: De Kooy Airport
Distance: 34 (mi)

Metar:
EHKD 160915Z AUTO 34013KT 300V030 9999 BKN016 BKN021 BKN025 09/05 Q1001 WHT TEMPO 4000 SHRA FEW010 SCT015CB BKN020

Time: 16-04-2024 11:15 CEST